Time;durP1;ratioP1;P1;durP2;ratioP2;P2;SDS_P1;SDS_P2;PMS_P1;PMS_P2;Temp;Humidity;BMP_temperature;BMP_pressure;BME280_temperature;BME280_humidity;BME280_pressure;Samples;Min_cycle;Max_cycle;Signal;HPM_P1;HPM_P2
2021/03/18 00:00:50;;;;;;;56.70;31.15;;;;;;;-0.01;66.10;100973.51;127643;1101;24658;-73
2021/03/18 00:03:29;;;;;;;58.02;28.55;;;;;;;-0.05;65.88;100969.41;128030;1101;24302;-73
2021/03/18 00:06:00;;;;;;;54.03;30.68;;;;;;;-0.06;66.78;100977.30;127979;1101;22476;-73
2021/03/18 00:08:28;;;;;;;62.75;29.15;;;;;;;-0.08;66.72;100977.37;128027;1101;22519;-73
2021/03/18 00:11:03;;;;;;;57.58;28.20;;;;;;;-0.10;65.98;100979.23;127993;1101;24729;-73
2021/03/18 00:13:32;;;;;;;49.00;25.52;;;;;;;-0.11;66.42;100974.94;128041;1101;22535;-73
2021/03/18 00:16:00;;;;;;;56.50;29.27;;;;;;;-0.10;66.72;100984.42;127978;1101;23257;-73
2021/03/18 00:18:33;;;;;;;57.23;26.93;;;;;;;-0.10;66.88;100974.03;127999;1101;24581;-73
2021/03/18 00:21:01;;;;;;;;;;;;;;;-0.15;66.30;100968.24;128079;1101;22510;-73
2021/03/18 00:23:31;;;;;;;56.00;28.55;;;;;;;-0.21;66.47;100968.57;128215;1099;23098;-74
2021/03/18 00:26:00;;;;;;;69.00;30.77;;;;;;;-0.21;66.67;100965.98;127956;1101;22622;-73
2021/03/18 00:28:29;;;;;;;58.90;30.20;;;;;;;-0.22;66.28;100961.71;128008;1101;23418;-73
2021/03/18 00:30:58;;;;;;;65.67;31.93;;;;;;;-0.21;67.25;100957.35;127962;1101;22506;-73
2021/03/18 00:33:27;;;;;;;68.00;31.40;;;;;;;-0.22;66.64;100953.92;127950;1101;23242;-73
2021/03/18 00:35:57;;;;;;;63.63;35.38;;;;;;;-0.22;67.35;100959.11;127954;1101;22501;-73
2021/03/18 00:38:27;;;;;;;68.22;33.98;;;;;;;-0.24;67.43;100964.38;128065;1101;22496;-73
2021/03/18 00:41:03;;;;;;;62.70;34.20;;;;;;;-0.23;66.98;100967.84;128129;1099;22484;-73
2021/03/18 00:43:31;;;;;;;59.53;32.83;;;;;;;-0.25;67.00;100959.28;128009;1099;22519;-73
2021/03/18 00:46:00;;;;;;;59.85;32.35;;;;;;;-0.28;67.09;100959.45;127994;1101;23370;-73
2021/03/18 00:48:35;;;;;;;61.85;32.70;;;;;;;-0.31;66.44;100957.84;127987;1101;22487;-73
2021/03/18 00:51:13;;;;;;;48.65;26.82;;;;;;;-0.33;66.52;100956.28;127949;1101;22529;-73
2021/03/18 00:53:47;;;;;;;49.40;24.82;;;;;;;-0.34;66.82;100965.80;128035;1101;23413;-73
2021/03/18 00:56:21;;;;;;;46.18;25.62;;;;;;;-0.34;67.21;100968.39;127927;1100;22521;-73
2021/03/18 00:58:57;;;;;;;42.95;26.77;;;;;;;-0.37;66.97;100967.72;127982;1101;24606;-73
2021/03/18 01:01:27;;;;;;;40.95;27.42;;;;;;;-0.40;67.24;100968.75;128191;1099;24381;-73
2021/03/18 01:03:57;;;;;;;43.45;27.85;;;;;;;-0.39;67.47;100966.98;127952;1101;22949;-73
2021/03/18 01:06:29;;;;;;;45.03;26.73;;;;;;;-0.41;68.03;100963.63;127976;1101;22635;-73
2021/03/18 01:08:59;;;;;;;42.67;27.00;;;;;;;-0.42;67.88;100961.95;128071;1101;22765;-73
2021/03/18 01:11:32;;;;;;;44.85;28.55;;;;;;;-0.42;67.83;100959.36;128177;1099;22617;-73
2021/03/18 01:14:07;;;;;;;39.30;26.35;;;;;;;-0.44;68.01;100956.00;128021;1101;22486;-73
2021/03/18 01:16:47;;;;;;;46.05;28.32;;;;;;;-0.46;67.53;100961.28;128072;1101;22642;-73
2021/03/18 01:19:17;;;;;;;45.30;28.27;;;;;;;-0.49;67.72;100951.06;127990;1101;24841;-73
2021/03/18 01:21:50;;;;;;;51.68;30.55;;;;;;;-0.50;67.83;100950.23;128136;1101;22498;-73
2021/03/18 01:24:19;;;;;;;47.20;31.40;;;;;;;-0.51;67.55;100955.48;127994;1101;22493;-73
2021/03/18 01:26:47;;;;;;;52.03;30.97;;;;;;;-0.53;68.21;100960.77;128018;1101;24291;-73
2021/03/18 01:29:15;;;;;;;50.30;30.85;;;;;;;-0.55;67.49;100951.39;128002;1101;24574;-73
2021/03/18 01:31:44;;;;;;;47.67;30.32;;;;;;;-0.57;67.87;100954.05;128041;1101;25057;-73
2021/03/18 01:34:12;;;;;;;46.55;31.48;;;;;;;-0.60;67.77;100954.23;128006;1100;22524;-73
2021/03/18 01:36:41;;;;;;;49.95;31.20;;;;;;;-0.63;67.62;100969.97;128116;1101;23336;-73
2021/03/18 01:39:09;;;;;;;53.73;31.40;;;;;;;-0.67;67.37;100965.00;128013;1100;22492;-73
2021/03/18 01:41:37;;;;;;;55.25;32.30;;;;;;;-0.72;67.80;100970.44;127957;1101;22505;-73
2021/03/18 01:44:06;;;;;;;54.98;32.85;;;;;;;-0.76;68.24;100971.53;127973;1101;22607;-73
2021/03/18 01:46:35;;;;;;;51.98;31.15;;;;;;;-0.78;68.08;100957.79;127966;1101;22520;-73
2021/03/18 01:49:07;;;;;;;50.08;29.87;;;;;;;-0.81;68.07;100961.38;128050;1101;22533;-73
2021/03/18 01:51:36;;;;;;;48.38;29.77;;;;;;;-0.83;68.67;100959.80;127959;1101;22505;-73
2021/03/18 01:54:04;;;;;;;49.65;30.35;;;;;;;-0.85;67.97;100959.03;127957;1100;22483;-73
2021/03/18 01:56:32;;;;;;;49.48;29.90;;;;;;;-0.88;67.98;100965.20;127967;1101;23361;-73
2021/03/18 01:59:01;;;;;;;52.38;31.52;;;;;;;-0.90;67.96;100961.01;127971;1101;22632;-73
2021/03/18 02:01:29;;;;;;;48.07;29.97;;;;;;;-0.90;68.24;100953.23;127970;1101;22532;-73
2021/03/18 02:03:58;;;;;;;55.55;32.38;;;;;;;-0.90;68.53;100958.42;127985;1101;22616;-73
2021/03/18 02:06:27;;;;;;;53.63;31.42;;;;;;;-0.90;68.67;100950.64;127996;1101;22472;-73
2021/03/18 02:08:56;;;;;;;51.50;29.57;;;;;;;-0.91;68.82;100960.17;127972;1101;22696;-73
2021/03/18 02:11:24;;;;;;;48.10;30.00;;;;;;;-0.91;68.86;100947.20;127964;1101;22508;-73
2021/03/18 02:13:52;;;;;;;43.95;26.77;;;;;;;-0.91;69.08;100952.39;127996;1101;22493;-73
2021/03/18 02:16:28;;;;;;;46.10;28.23;;;;;;;-0.90;68.83;100948.04;128002;1099;22498;-73
2021/03/18 02:19:32;;;;;;;42.35;26.90;;;;;;;-0.92;69.13;100942.11;127991;1101;23316;-73
2021/03/18 02:22:10;;;;;;;42.78;26.77;;;;;;;-0.93;69.03;100949.06;127993;1101;22499;-74
2021/03/18 02:24:56;;;;;;;45.95;28.15;;;;;;;-0.93;68.86;100948.20;128160;1101;24259;-73
2021/03/18 02:28:25;;;;;;;45.10;26.25;;;;;;;-0.95;69.31;100943.94;128192;1100;22502;-74
2021/03/18 02:31:07;;;;;;;40.73;26.62;;;;;;;-0.99;69.16;100939.00;127997;1101;24600;-73
2021/03/18 02:34:38;;;;;;;38.90;25.62;;;;;;;-1.00;69.13;100948.54;127939;1101;22511;-73
2021/03/18 02:37:12;;;;;;;45.83;27.13;;;;;;;-1.03;69.57;100948.70;128001;1100;23289;-73
2021/03/18 02:39:50;;;;;;;43.10;26.87;;;;;;;-1.03;69.36;100948.70;127998;1101;22488;-73
2021/03/18 02:42:21;;;;;;;47.98;27.87;;;;;;;-1.03;69.08;100948.70;128069;1101;22495;-73
2021/03/18 02:44:53;;;;;;;43.92;27.27;;;;;;;-1.00;69.88;100947.67;127986;1101;23185;-73
2021/03/18 02:47:23;;;;;;;46.42;28.15;;;;;;;-0.99;69.93;100946.78;128118;1101;22504;-74
2021/03/18 02:49:54;;;;;;;47.07;26.87;;;;;;;-1.01;69.86;100951.20;128155;1100;23779;-73
2021/03/18 02:52:25;;;;;;;44.23;27.58;;;;;;;-1.05;69.32;100949.69;128065;1101;22523;-73
2021/03/18 02:54:56;;;;;;;48.28;27.50;;;;;;;-1.08;69.63;100948.08;128029;1101;22556;-73
2021/03/18 02:57:27;;;;;;;44.98;28.02;;;;;;;-1.11;69.82;100948.23;127988;1101;22617;-73
2021/03/18 02:59:58;;;;;;;43.97;28.47;;;;;;;-1.14;69.60;100945.80;128022;1101;22614;-74
2021/03/18 03:02:29;;;;;;;43.78;26.93;;;;;;;-1.15;69.56;100951.08;128038;1101;22573;-74
2021/03/18 03:04:58;;;;;;;46.33;26.95;;;;;;;-1.15;69.67;100940.70;128021;1101;24288;-73
2021/03/18 03:07:30;;;;;;;49.85;29.95;;;;;;;-1.16;70.55;100924.31;127982;1101;22492;-74
2021/03/18 03:10:03;;;;;;;49.98;31.80;;;;;;;-1.13;69.98;100938.85;128004;1099;24594;-74
2021/03/18 03:12:33;;;;;;;50.33;30.80;;;;;;;-1.08;70.12;100931.69;128009;1101;22498;-74
2021/03/18 03:15:05;;;;;;;50.38;33.13;;;;;;;-1.04;70.38;100941.81;128044;1100;24551;-74
2021/03/18 03:17:34;;;;;;;50.78;29.63;;;;;;;-1.02;70.65;100945.17;128055;1101;22501;-74
2021/03/18 03:20:06;;;;;;;40.97;28.50;;;;;;;-1.01;70.08;100943.41;128045;1101;22521;-74
2021/03/18 03:22:36;;;;;;;42.65;27.37;;;;;;;-1.01;69.93;100953.79;128051;1101;22493;-74
2021/03/18 03:25:09;;;;;;;48.08;26.65;;;;;;;-1.01;70.24;100953.79;127981;1100;22493;-74
2021/03/18 03:27:38;;;;;;;39.30;25.92;;;;;;;-1.01;70.62;100954.63;128021;1100;22501;-74
2021/03/18 03:30:09;;;;;;;46.10;27.32;;;;;;;-1.01;70.54;100948.61;127975;1099;22517;-74
2021/03/18 03:32:37;;;;;;;35.33;24.77;;;;;;;-1.03;69.55;100956.48;128081;1100;22527;-74
2021/03/18 03:35:07;;;;;;;40.50;25.65;;;;;;;-1.06;70.09;100951.45;128106;1101;24259;-73
2021/03/18 03:37:36;;;;;;;38.10;26.12;;;;;;;-1.09;69.96;100951.59;127954;1101;22530;-73
2021/03/18 03:40:09;;;;;;;39.20;24.70;;;;;;;-1.12;70.26;100949.16;127971;1100;22477;-73
2021/03/18 03:42:37;;;;;;;42.53;25.97;;;;;;;-1.13;70.33;100950.09;128017;1101;22507;-73
2021/03/18 03:45:10;;;;;;;39.88;26.57;;;;;;;-1.15;70.38;100951.08;127942;1101;22528;-73
2021/03/18 03:47:44;;;;;;;50.03;29.40;;;;;;;-1.20;70.12;100951.28;128031;1100;22607;-73
2021/03/18 03:50:22;;;;;;;44.27;28.38;;;;;;;-1.23;70.30;100948.87;128040;1101;24347;-73
2021/03/18 03:53:41;;;;;;;41.00;27.30;;;;;;;-1.24;69.62;100957.55;128029;1101;22579;-73
2021/03/18 03:56:16;;;;;;;43.38;25.97;;;;;;;-1.31;70.27;100959.61;127967;1101;22531;-73
2021/03/18 03:58:57;;;;;;;44.15;25.65;;;;;;;-1.31;69.80;100951.00;128247;1099;22532;-73
2021/03/18 04:01:38;;;;;;;47.93;26.85;;;;;;;-1.33;70.15;100950.23;128040;1101;24590;-72
2021/03/18 04:04:30;;;;;;;41.50;25.48;;;;;;;-1.36;70.27;100956.43;128195;1101;24581;-73
2021/03/18 04:07:07;;;;;;;42.58;25.82;;;;;;;-1.37;70.45;100954.73;127970;1101;22516;-73
2021/03/18 04:09:38;;;;;;;38.20;25.17;;;;;;;-1.35;70.55;100952.08;127978;1099;22497;-73
2021/03/18 04:12:09;;;;;;;46.58;27.93;;;;;;;-1.36;70.65;100945.23;128016;1101;22601;-73
2021/03/18 04:14:43;;;;;;;42.43;25.50;;;;;;;-1.36;70.74;100938.28;128123;1101;22937;-73
2021/03/18 04:17:12;;;;;;;46.77;26.37;;;;;;;-1.34;71.00;100948.56;128009;1101;22505;-73
2021/03/18 04:19:50;;;;;;;44.20;26.65;;;;;;;-1.34;70.73;100936.44;128017;1101;22497;-73
2021/03/18 04:22:20;;;;;;;41.75;25.95;;;;;;;-1.34;70.13;100939.03;127989;1101;22492;-73
2021/03/18 04:24:51;;;;;;;39.40;27.45;;;;;;;-1.34;70.72;100936.44;128021;1099;22492;-72
2021/03/18 04:27:21;;;;;;;41.50;28.30;;;;;;;-1.33;70.68;100950.23;128005;1101;22623;-72
2021/03/18 04:29:50;;;;;;;41.48;26.52;;;;;;;-1.34;70.21;100944.21;127989;1101;23206;-72
2021/03/18 04:32:18;;;;;;;41.45;27.42;;;;;;;-1.34;70.27;100953.74;127939;1101;22623;-72
2021/03/18 04:34:54;;;;;;;43.83;26.40;;;;;;;-1.33;70.45;100955.41;127946;1101;22501;-73
2021/03/18 04:37:23;;;;;;;41.37;27.58;;;;;;;-1.32;70.31;100944.15;127989;1101;24613;-72
2021/03/18 04:39:52;;;;;;;36.75;25.30;;;;;;;-1.31;71.17;100941.47;127964;1101;23518;-72
2021/03/18 04:42:21;;;;;;;41.08;27.27;;;;;;;-1.29;71.16;100944.00;128055;1101;22525;-72
2021/03/18 04:44:50;;;;;;;40.63;26.20;;;;;;;-1.26;70.78;100934.31;128001;1101;22493;-72
2021/03/18 04:47:20;;;;;;;41.08;27.13;;;;;;;-1.23;70.76;100938.51;128169;1100;22478;-72
2021/03/18 04:49:50;;;;;;;50.00;31.05;;;;;;;-1.20;70.53;100941.78;128060;1101;24262;-71
2021/03/18 04:52:19;;;;;;;50.03;29.92;;;;;;;-1.19;70.67;100935.67;128025;1101;22520;-72
2021/03/18 04:54:47;;;;;;;44.23;27.37;;;;;;;-1.16;71.25;100932.09;127916;1102;25097;-73
2021/03/18 04:57:21;;;;;;;41.73;28.25;;;;;;;-1.14;71.11;100927.64;128017;1101;24334;-72
2021/03/18 04:59:57;;;;;;;50.25;29.72;;;;;;;-1.09;71.62;100935.20;127978;1101;24253;-73
2021/03/18 05:02:27;;;;;;;40.73;28.57;;;;;;;-1.05;71.02;100936.72;127997;1101;22610;-73
2021/03/18 05:05:19;;;;;;;55.45;29.05;;;;;;;-1.02;71.34;100929.62;128019;1101;22464;-74
2021/03/18 05:07:51;;;;;;;42.27;28.47;;;;;;;-1.02;71.42;100934.80;128012;1101;22486;-74
2021/03/18 05:10:24;;;;;;;45.00;28.75;;;;;;;-0.97;70.98;100934.55;128047;1101;22477;-74
2021/03/18 05:12:56;;;;;;;43.68;29.50;;;;;;;-0.95;70.61;100928.37;128056;1101;22587;-76
2021/03/18 05:15:25;;;;;;;50.95;32.48;;;;;;;-0.94;70.86;100926.62;128050;1101;24327;-76
2021/03/18 05:17:54;;;;;;;44.30;28.92;;;;;;;-0.92;70.49;100926.55;128047;1101;24597;-74
2021/03/18 05:20:25;;;;;;;46.90;32.65;;;;;;;-0.87;71.00;100934.91;128015;1101;22536;-74
2021/03/18 05:22:53;;;;;;;47.33;32.73;;;;;;;-0.84;71.22;100932.16;128042;1101;22696;-74
2021/03/18 05:25:28;;;;;;;50.25;31.50;;;;;;;-0.80;71.41;100934.53;128000;1101;22490;-74
2021/03/18 05:27:59;;;;;;;45.40;30.27;;;;;;;-0.74;71.54;100935.95;128099;1101;23221;-74
2021/03/18 05:30:29;;;;;;;48.35;32.42;;;;;;;-0.73;71.15;100937.64;128025;1101;22732;-74
2021/03/18 05:33:00;;;;;;;48.38;32.15;;;;;;;-0.71;71.01;100931.43;128023;1100;22516;-74
2021/03/18 05:35:41;;;;;;;45.30;32.95;;;;;;;-0.67;70.83;100942.48;128004;1101;22675;-74
2021/03/18 05:38:11;;;;;;;;;;;;;;;-0.66;71.04;100936.39;128037;1101;25110;-74
2021/03/18 05:40:43;;;;;;;52.20;33.05;;;;;;;-0.64;71.70;100936.30;127942;1101;23002;-74
2021/03/18 05:43:11;;;;;;;54.63;38.83;;;;;;;-0.52;71.88;100939.08;128029;1100;22491;-74
2021/03/18 05:45:39;;;;;;;70.72;43.83;;;;;;;-0.36;72.01;100933.08;127991;1101;22528;-74
2021/03/18 05:48:09;;;;;;;64.70;41.08;;;;;;;-0.24;71.77;100940.17;128029;1101;24420;-73
2021/03/18 05:50:41;;;;;;;60.83;41.02;;;;;;;-0.13;72.03;100934.41;128073;1101;22485;-73
2021/03/18 05:53:11;;;;;;;69.47;43.60;;;;;;;-0.03;72.10;100946.80;128046;1101;22629;-73
2021/03/18 05:55:40;;;;;;;58.52;41.42;;;;;;;0.07;71.78;100933.27;128289;1100;24594;-73
2021/03/18 05:58:12;;;;;;;56.18;39.78;;;;;;;0.14;71.34;100939.83;127999;1101;22534;-73
2021/03/18 06:00:41;;;;;;;57.23;37.53;;;;;;;0.19;71.07;100935.19;127977;1100;22603;-73
2021/03/18 06:03:09;;;;;;;56.83;37.50;;;;;;;0.27;71.02;100935.61;128007;1101;24347;-72
2021/03/18 06:06:01;;;;;;;53.90;35.10;;;;;;;0.35;70.55;100943.79;128010;1100;22570;-73
2021/03/18 06:08:29;;;;;;;45.27;31.43;;;;;;;0.44;70.93;100935.47;127976;1099;22480;-73
2021/03/18 06:10:57;;;;;;;46.85;31.90;;;;;;;0.55;70.60;100941.81;127944;1101;22797;-72
2021/03/18 06:13:26;;;;;;;41.58;29.20;;;;;;;0.62;70.55;100935.33;127932;1101;22526;-73
2021/03/18 06:15:55;;;;;;;44.58;30.72;;;;;;;0.72;71.11;100936.45;127963;1101;22490;-73
2021/03/18 06:18:24;;;;;;;44.27;29.57;;;;;;;0.82;70.53;100941.95;127939;1101;22513;-72
2021/03/18 06:20:55;;;;;;;38.70;26.75;;;;;;;0.90;70.56;100939.72;127994;1101;22528;-71
2021/03/18 06:23:24;;;;;;;37.63;27.13;;;;;;;0.94;70.65;100942.07;128051;1101;22525;-74
2021/03/18 06:25:53;;;;;;;36.68;25.75;;;;;;;0.96;70.25;100947.16;128032;1099;22528;-73
2021/03/18 06:28:31;;;;;;;36.15;24.52;;;;;;;1.00;69.59;100950.42;128085;1101;22503;-72
2021/03/18 06:31:15;;;;;;;33.98;24.25;;;;;;;1.07;70.62;100947.38;128018;1099;25143;-75
2021/03/18 06:33:50;;;;;;;37.80;24.43;;;;;;;1.14;70.64;100947.85;128040;1101;22713;-73
2021/03/18 06:36:33;;;;;;;29.55;22.40;;;;;;;1.19;69.44;100950.99;128111;1099;22530;-73
2021/03/18 06:39:17;;;;;;;36.77;23.05;;;;;;;1.23;69.80;100947.27;127927;1099;22667;-73
2021/03/18 06:41:47;;;;;;;;;;;;;;;1.36;70.67;100955.17;128020;1101;22704;-71
2021/03/18 06:44:22;;;;;;;41.40;24.67;;;;;;;1.44;69.96;100958.16;128171;1099;21297;-71
2021/03/18 06:47:07;;;;;;;33.48;23.80;;;;;;;1.62;70.09;100956.17;128132;1099;22527;-71
2021/03/18 06:49:37;;;;;;;31.12;23.52;;;;;;;1.79;70.02;100955.12;127999;1101;22534;-71
2021/03/18 06:52:12;;;;;;;29.65;20.43;;;;;;;1.89;69.72;100959.64;128032;1101;24574;-74
2021/03/18 06:54:44;;;;;;;30.62;23.38;;;;;;;1.96;68.75;100962.70;128004;1101;22527;-76
2021/03/18 06:57:19;;;;;;;27.30;21.82;;;;;;;1.96;68.09;100961.87;128023;1101;22533;-73
2021/03/18 06:59:47;;;;;;;30.45;22.13;;;;;;;1.88;68.69;100959.75;127990;1101;24360;-73
2021/03/18 07:02:19;;;;;;;31.62;22.60;;;;;;;1.86;68.37;100967.66;128164;1101;22513;-74
2021/03/18 07:04:54;;;;;;;28.00;21.65;;;;;;;1.81;68.04;100968.89;128237;1100;22488;-72
2021/03/18 07:07:25;;;;;;;34.03;26.27;;;;;;;1.72;68.19;100961.65;128190;1101;24581;-73
2021/03/18 07:09:55;;;;;;;35.63;30.70;;;;;;;1.66;67.82;100970.67;128355;1099;22623;-73
2021/03/18 07:12:30;;;;;;;33.85;30.17;;;;;;;1.59;67.37;100964.17;128189;1101;25215;-72
2021/03/18 07:15:00;;;;;;;38.73;33.02;;;;;;;1.51;67.75;100971.64;128199;1101;22514;-73
2021/03/18 07:17:37;;;;;;;42.00;34.63;;;;;;;1.47;67.76;100964.95;128103;1101;24569;-72
2021/03/18 07:20:20;;;;;;;36.98;32.60;;;;;;;1.51;68.37;100967.27;128095;1099;24282;-73
2021/03/18 07:22:56;;;;;;;38.10;34.03;;;;;;;1.49;67.67;100960.47;128074;1101;22709;-73
2021/03/18 07:25:29;;;;;;;37.65;33.13;;;;;;;1.49;67.96;100968.28;127965;1101;22605;-73
2021/03/18 07:28:02;;;;;;;35.50;31.77;;;;;;;1.52;67.50;100974.13;127957;1101;25827;-73
2021/03/18 07:30:37;;;;;;;37.67;33.67;;;;;;;1.55;67.90;100965.30;128122;1101;24492;-74
2021/03/18 07:33:06;;;;;;;38.90;33.35;;;;;;;1.56;67.56;100973.00;128153;1101;22488;-79
2021/03/18 07:35:36;;;;;;;34.73;30.97;;;;;;;1.57;68.10;100969.49;128094;1101;25110;-79
2021/03/18 07:38:04;;;;;;;42.33;37.93;;;;;;;1.56;67.22;100966.97;128057;1101;24592;-78
2021/03/18 07:40:32;;;;;;;38.92;34.88;;;;;;;1.57;67.40;100966.89;128069;1099;24640;-78
2021/03/18 07:43:01;;;;;;;34.50;29.67;;;;;;;1.57;67.68;100966.05;128053;1101;22580;-78
2021/03/18 07:45:32;;;;;;;26.27;23.38;;;;;;;1.56;66.89;100970.41;128089;1101;22535;-78
2021/03/18 07:48:02;;;;;;;29.42;24.57;;;;;;;1.51;66.70;100971.64;128163;1101;22468;-76
2021/03/18 07:50:39;;;;;;;29.07;26.12;;;;;;;1.52;66.84;100976.73;128032;1100;22533;-77
2021/03/18 07:53:19;;;;;;;46.25;40.50;;;;;;;1.51;66.82;100974.24;128093;1101;24584;-77
2021/03/18 07:55:49;;;;;;;30.48;27.00;;;;;;;1.51;66.90;100972.47;128050;1101;22582;-77
2021/03/18 07:58:38;;;;;;;35.45;31.82;;;;;;;1.53;67.05;100973.19;128030;1101;22487;-77
2021/03/18 08:01:07;;;;;;;38.13;31.42;;;;;;;1.58;67.20;100973.77;128084;1101;22536;-77
2021/03/18 08:03:35;;;;;;;41.45;29.10;;;;;;;1.61;67.33;100970.14;128316;1099;22757;-76
2021/03/18 08:06:04;;;;;;;32.00;27.65;;;;;;;1.61;66.68;100965.76;128006;1101;24334;-76
2021/03/18 08:08:32;;;;;;;26.93;24.05;;;;;;;1.59;67.32;100959.80;127991;1100;22573;-76
2021/03/18 08:11:06;;;;;;;29.67;24.60;;;;;;;1.59;66.69;100964.17;128234;1101;22499;-76
2021/03/18 08:13:37;;;;;;;28.10;24.95;;;;;;;1.56;67.07;100959.16;128014;1101;22528;-76
2021/03/18 08:16:09;;;;;;;27.15;23.55;;;;;;;1.57;66.81;100960.84;128017;1101;22661;-76
2021/03/18 08:18:39;;;;;;;31.73;21.82;;;;;;;1.59;67.11;100956.36;128219;1101;22515;-76
2021/03/18 08:21:11;;;;;;;33.28;25.27;;;;;;;1.69;67.64;100954.02;128021;1101;22523;-76
2021/03/18 08:23:41;;;;;;;34.18;29.40;;;;;;;1.79;67.58;100949.91;127988;1101;24021;-77
2021/03/18 08:26:19;;;;;;;33.78;26.80;;;;;;;1.88;66.74;100960.59;128046;1101;22563;-76
2021/03/18 08:28:58;;;;;;;25.52;22.82;;;;;;;1.90;66.06;100952.69;128165;1101;22564;-76
2021/03/18 08:31:30;;;;;;;38.83;23.12;;;;;;;1.95;66.66;100954.99;128119;1101;22626;-76
2021/03/18 08:34:02;;;;;;;23.03;20.23;;;;;;;2.05;67.05;100950.86;128213;1101;24415;-76
2021/03/18 08:36:51;;;;;;;25.17;18.37;;;;;;;2.18;66.85;100958.73;128309;1100;22597;-76
2021/03/18 08:39:47;;;;;;;23.90;16.95;;;;;;;2.26;66.24;100959.89;128135;1099;22595;-76
2021/03/18 08:42:28;;;;;;;25.08;18.02;;;;;;;2.32;66.54;100956.06;128014;1101;22493;-77
2021/03/18 08:44:59;;;;;;;24.77;17.70;;;;;;;2.38;65.40;100962.66;128218;1099;22495;-77
2021/03/18 08:47:43;;;;;;;22.33;17.70;;;;;;;2.40;65.62;100963.38;128218;1101;22529;-77
2021/03/18 08:50:25;;;;;;;19.07;15.10;;;;;;;2.42;65.68;100956.30;128068;1101;22475;-75
2021/03/18 08:52:58;;;;;;;19.23;14.58;;;;;;;2.45;65.15;100954.33;128004;1101;22520;-76
2021/03/18 08:55:47;;;;;;;26.20;18.98;;;;;;;2.56;65.65;100953.61;128055;1101;22503;-76
2021/03/18 08:58:15;;;;;;;20.25;16.87;;;;;;;2.64;65.17;100953.13;128193;1099;22499;-76
2021/03/18 09:00:47;;;;;;;17.47;13.67;;;;;;;2.68;65.15;100955.42;127980;1101;22555;-77
2021/03/18 09:03:20;;;;;;;20.62;15.50;;;;;;;2.69;64.07;100951.03;127966;1101;22528;-76
2021/03/18 09:05:57;;;;;;;38.25;15.80;;;;;;;2.75;64.19;100961.89;128240;1101;22495;-76
2021/03/18 09:08:30;;;;;;;29.55;19.65;;;;;;;2.91;64.01;100955.66;127989;1101;22998;-77
2021/03/18 09:10:58;;;;;;;22.95;17.77;;;;;;;3.16;64.15;100952.20;128018;1101;22494;-77
2021/03/18 09:13:27;;;;;;;27.45;17.82;;;;;;;3.39;64.63;100956.66;127989;1101;24594;-77
2021/03/18 09:16:01;;;;;;;24.12;21.57;;;;;;;3.46;63.69;100949.23;127985;1101;22495;-77
2021/03/18 09:18:34;;;;;;;21.62;19.35;;;;;;;3.48;63.18;100953.42;128202;1101;22496;-77
2021/03/18 09:21:10;;;;;;;20.53;17.07;;;;;;;3.52;62.43;100947.03;127940;1101;22725;-77
2021/03/18 09:23:46;;;;;;;27.22;19.20;;;;;;;3.51;62.13;100945.37;128243;1099;22997;-77
2021/03/18 09:26:16;;;;;;;18.75;15.90;;;;;;;3.56;62.05;100950.26;128016;1101;22505;-76
2021/03/18 09:28:50;;;;;;;23.55;17.10;;;;;;;3.62;62.23;100943.78;128019;1099;22532;-77
2021/03/18 09:31:24;;;;;;;16.32;14.60;;;;;;;3.67;62.39;100939.91;128057;1101;22508;-77
2021/03/18 09:33:55;;;;;;;18.00;16.05;;;;;;;3.71;62.11;100941.34;128007;1101;22503;-77
2021/03/18 09:36:30;;;;;;;15.63;14.10;;;;;;;3.68;60.88;100938.95;128012;1101;22493;-76
2021/03/18 09:39:13;;;;;;;12.95;11.70;;;;;;;3.62;60.86;100936.77;128007;1101;22532;-76
2021/03/18 09:41:48;;;;;;;14.47;13.00;;;;;;;3.69;61.22;100919.70;128040;1101;23261;-77
2021/03/18 09:44:22;;;;;;;21.65;12.88;;;;;;;3.93;62.28;100922.36;128122;1101;22496;-77
2021/03/18 09:47:11;;;;;;;17.73;12.43;;;;;;;4.31;62.23;100917.89;128072;1101;22495;-77
2021/03/18 09:49:42;;;;;;;16.82;12.70;;;;;;;4.61;61.47;100920.83;128022;1101;22750;-78
2021/03/18 09:52:22;;;;;;;33.38;15.08;;;;;;;4.94;61.62;100916.61;128018;1101;22622;-76
2021/03/18 09:54:51;;;;;;;14.78;12.68;;;;;;;5.06;59.75;100923.50;128044;1101;23359;-77
2021/03/18 09:57:21;;;;;;;22.05;13.62;;;;;;;4.99;59.49;100914.45;128088;1101;22503;-77
2021/03/18 09:59:53;;;;;;;15.63;12.98;;;;;;;4.97;59.22;100913.75;128004;1101;24323;-76
2021/03/18 10:02:28;;;;;;;15.15;12.82;;;;;;;4.97;58.54;100907.69;128140;1101;22573;-77
2021/03/18 10:04:57;;;;;;;20.25;13.58;;;;;;;5.02;59.30;100908.98;128046;1101;22801;-77
2021/03/18 10:07:34;;;;;;;48.23;17.00;;;;;;;5.14;58.76;100912.45;128053;1101;22627;-77
2021/03/18 10:10:05;;;;;;;16.35;14.00;;;;;;;5.20;58.15;100909.36;128081;1101;22587;-77
2021/03/18 10:12:33;;;;;;;20.48;15.00;;;;;;;5.17;58.19;100912.22;128007;1101;23242;-77
2021/03/18 10:15:09;;;;;;;19.45;15.68;;;;;;;5.16;58.14;100911.39;128001;1101;22504;-76
2021/03/18 10:17:41;;;;;;;28.60;14.47;;;;;;;5.19;57.65;100907.67;128014;1101;24699;-76
2021/03/18 10:20:19;;;;;;;17.50;13.55;;;;;;;5.26;57.78;100905.41;128026;1101;22495;-77
2021/03/18 10:22:57;;;;;;;29.42;14.78;;;;;;;5.31;57.54;100903.28;128244;1101;23245;-77
2021/03/18 10:25:27;;;;;;;16.37;12.75;;;;;;;5.23;57.09;100905.65;128059;1101;23367;-77
2021/03/18 10:28:09;;;;;;;17.48;14.63;;;;;;;5.15;57.32;100891.37;128028;1101;22495;-76
2021/03/18 10:30:46;;;;;;;40.07;22.70;;;;;;;5.12;56.94;100894.22;128286;1100;23219;-77
2021/03/18 10:33:22;;;;;;;22.32;18.55;;;;;;;5.13;57.45;100897.67;128053;1101;22499;-77
2021/03/18 10:35:54;;;;;;;23.12;15.00;;;;;;;5.12;57.76;100896.02;128300;1099;22948;-76
2021/03/18 10:38:31;;;;;;;15.48;13.90;;;;;;;5.12;57.72;100899.46;128281;1101;22495;-77
2021/03/18 10:41:09;;;;;;;27.77;16.07;;;;;;;5.06;57.46;100894.69;127973;1101;22506;-77
2021/03/18 10:43:44;;;;;;;14.33;12.63;;;;;;;4.97;56.58;100894.59;128048;1101;23244;-77
2021/03/18 10:46:16;;;;;;;44.95;16.65;;;;;;;4.86;56.83;100895.40;128082;1101;22668;-77
2021/03/18 10:48:49;;;;;;;17.77;10.43;;;;;;;4.80;57.19;100885.39;128160;1101;24340;-77
2021/03/18 10:51:20;;;;;;;17.05;10.28;;;;;;;4.74;57.27;100885.89;128283;1101;23132;-77
2021/03/18 10:53:51;;;;;;;27.85;15.03;;;;;;;4.69;56.79;100875.75;128540;1101;24584;-77
2021/03/18 10:56:28;;;;;;;16.02;13.00;;;;;;;4.75;57.40;100885.76;128154;1101;22655;-77
2021/03/18 10:58:57;;;;;;;14.70;11.00;;;;;;;4.81;57.65;100868.76;128132;1101;23414;-76
2021/03/18 11:01:29;;;;;;;10.23;9.08;;;;;;;4.86;56.86;100862.20;128113;1101;22500;-77
2021/03/18 11:04:05;;;;;;;15.20;9.83;;;;;;;4.88;56.44;100872.56;128105;1099;23156;-77
2021/03/18 11:06:46;;;;;;;17.40;12.45;;;;;;;4.89;56.86;100868.98;128119;1101;22529;-77
2021/03/18 11:09:17;;;;;;;53.15;21.17;;;;;;;4.78;56.00;100858.52;128159;1101;22530;-77
2021/03/18 11:11:55;;;;;;;15.98;14.28;;;;;;;4.64;56.36;100859.58;128135;1101;22479;-77
2021/03/18 11:14:26;;;;;;;19.87;16.15;;;;;;;4.53;56.34;100854.31;128116;1101;24580;-77
2021/03/18 11:17:08;;;;;;;24.15;15.48;;;;;;;4.45;57.12;100847.05;128121;1099;24625;-76
2021/03/18 11:19:37;;;;;;;19.03;16.53;;;;;;;4.51;57.53;100843.98;128144;1101;22526;-77
2021/03/18 11:22:06;;;;;;;22.50;15.70;;;;;;;4.57;57.07;100842.69;128045;1099;22527;-78
2021/03/18 11:24:34;;;;;;;16.57;13.62;;;;;;;4.60;56.85;100842.42;127998;1099;22640;-76
2021/03/18 11:27:06;;;;;;;23.32;15.55;;;;;;;4.63;57.37;100840.44;128009;1100;25154;-77
2021/03/18 11:29:37;;;;;;;16.45;14.75;;;;;;;4.58;57.15;100833.87;127920;1101;22623;-76
2021/03/18 11:32:07;;;;;;;14.25;12.85;;;;;;;4.60;57.40;100832.81;127981;1101;22531;-78
2021/03/18 11:34:40;;;;;;;24.75;13.95;;;;;;;4.60;56.97;100832.81;127969;1101;24578;-76